Terminal Aerodrome Forecast
Issued by NWS

Home | Current Version | Previous Version | Graphics & Text | Print | Product List | Glossary On
Versions: 1 2 3 4 5 6 7 8 9 10 11 12 13 14 15
630
FTUS43 KMPX 041720
TAFRWF
TAF
KRWF 041720Z 0418/0518 31010KT P6SM -SN SCT010 OVC025
     FM041930 31011KT P6SM SCT020
     FM050400 25004KT 5SM BR BKN250
     FM051100 17007KT P6SM BKN100
     FM051600 18010KT P6SM BKN040 OVC080=

USA.gov is the U.S. government's official web portal to all federal, state and local government web resources and services.